createdAt,value
2023-01-01T00:01:28.854Z,23.06
2023-01-01T00:03:57.373Z,23.20
2023-01-01T00:06:25.126Z,23.00
2023-01-01T00:09:14.650Z,23.24
2023-01-01T00:11:42.586Z,23.19
2023-01-01T00:14:12.440Z,23.25
2023-01-01T00:16:39.623Z,23.26
2023-01-01T00:19:06.267Z,23.21
2023-01-01T00:21:32.893Z,23.26
2023-01-01T00:23:59.451Z,23.01
2023-01-01T00:26:29.525Z,23.27
2023-01-01T00:29:01.788Z,23.10
2023-01-01T00:31:28.919Z,23.06
2023-01-01T00:33:56.254Z,23.26
2023-01-01T00:36:26.134Z,23.06
2023-01-01T00:38:53.165Z,23.08
2023-01-01T00:41:20.421Z,23.28
2023-01-01T00:43:47.483Z,23.24
2023-01-01T00:46:14.387Z,23.28
2023-01-01T00:48:41.736Z,23.28
2023-01-01T00:51:08.463Z,23.28
2023-01-01T00:53:35.794Z,23.21
2023-01-01T00:56:02.409Z,23.21
2023-01-01T00:58:29.258Z,23.30
2023-01-01T01:00:55.962Z,23.03
2023-01-01T01:03:29.163Z,22.82
2023-01-01T01:06:09.160Z,23.30
2023-01-01T01:08:38.417Z,23.30
2023-01-01T01:11:15.279Z,22.97
2023-01-01T01:13:47.668Z,23.23
2023-01-01T01:16:21.822Z,23.30
2023-01-01T01:18:52.029Z,23.30
2023-01-01T01:21:21.203Z,23.31
2023-01-01T01:23:48.748Z,23.19
2023-01-01T01:26:22.257Z,23.31
2023-01-01T01:28:50.376Z,23.26
2023-01-01T01:31:18.455Z,23.31
2023-01-01T01:33:46.537Z,23.24
2023-01-01T01:36:15.271Z,23.31
2023-01-01T01:38:42.296Z,23.23
2023-01-01T01:41:16.339Z,23.13
2023-01-01T01:43:57.554Z,23.31
2023-01-01T01:46:35.833Z,23.32
2023-01-01T01:49:14.419Z,23.31
2023-01-01T01:51:41.188Z,23.18
2023-01-01T01:54:12.824Z,23.31
2023-01-01T01:56:49.888Z,23.31
2023-01-01T01:59:19.029Z,23.32
2023-01-01T02:01:46.071Z,23.30
2023-01-01T02:04:13.302Z,23.29
2023-01-01T02:06:40.979Z,23.27
2023-01-01T02:09:09.029Z,23.31
2023-01-01T02:11:35.740Z,23.20
2023-01-01T02:16:36.747Z,23.32
2023-01-01T02:19:06.241Z,23.32
2023-01-01T02:21:39.734Z,23.33
2023-01-01T02:24:21.514Z,23.32
2023-01-01T02:27:01.418Z,23.26
2023-01-01T02:29:48.996Z,23.32
2023-01-01T02:32:34.360Z,23.32
2023-01-01T02:35:29.550Z,23.28
2023-01-01T02:38:25.993Z,23.30
2023-01-01T02:41:02.280Z,23.30
2023-01-01T02:43:28.883Z,23.30
2023-01-01T02:45:56.282Z,23.23
2023-01-01T02:48:40.481Z,23.29
2023-01-01T02:51:46.716Z,23.29
2023-01-01T02:54:19.214Z,23.28
2023-01-01T02:56:55.241Z,23.18
2023-01-01T02:59:52.962Z,23.23
2023-01-01T03:03:07.207Z,23.27
2023-01-01T03:05:59.282Z,23.26
2023-01-01T03:08:33.657Z,23.26
2023-01-01T03:11:09.938Z,23.11
2023-01-01T03:13:48.741Z,23.25
2023-01-01T03:16:15.362Z,23.25
2023-01-01T03:19:19.189Z,23.10
2023-01-01T03:21:52.155Z,23.24
2023-01-01T03:24:25.337Z,23.23
2023-01-01T03:26:57.643Z,23.13
2023-01-01T03:29:28.230Z,23.15
2023-01-01T03:31:58.748Z,23.20
2023-01-01T03:34:33.390Z,23.19
2023-01-01T03:37:06.675Z,23.21
2023-01-01T03:39:47.402Z,23.21
2023-01-01T03:42:29.703Z,23.21
2023-01-01T03:45:04.089Z,23.12
2023-01-01T03:47:31.497Z,23.05
2023-01-01T03:49:59.798Z,23.12
2023-01-01T03:52:36.225Z,23.16
2023-01-01T03:55:12.025Z,23.16
2023-01-01T03:57:50.700Z,23.15
2023-01-01T04:00:20.943Z,23.04
2023-01-01T04:02:50.919Z,23.04
2023-01-01T04:05:19.804Z,23.09
2023-01-01T04:10:17.709Z,23.11
2023-01-01T04:12:50.534Z,22.94
2023-01-01T04:15:24.635Z,23.04
2023-01-01T04:17:52.086Z,22.97
2023-01-01T04:20:19.555Z,23.05
2023-01-01T04:22:46.759Z,23.13
2023-01-01T04:25:14.695Z,23.11
2023-01-01T04:27:41.372Z,23.11
2023-01-01T04:30:10.940Z,23.10
2023-01-01T04:32:38.270Z,22.95
2023-01-01T04:35:06.327Z,23.11
2023-01-01T04:37:36.028Z,23.11
2023-01-01T04:40:03.340Z,23.11
2023-01-01T04:42:29.971Z,23.01
2023-01-01T04:44:56.705Z,23.11
2023-01-01T04:47:23.357Z,23.11
2023-01-01T04:49:49.979Z,23.11
2023-01-01T04:52:16.674Z,23.11
2023-01-01T04:54:43.385Z,23.09
2023-01-01T04:57:09.924Z,23.07
2023-01-01T04:59:36.674Z,23.11
2023-01-01T05:02:03.655Z,22.96
2023-01-01T05:04:30.630Z,22.89
2023-01-01T05:06:57.289Z,23.11
2023-01-01T05:09:23.966Z,23.11
2023-01-01T05:14:12.906Z,22.96
2023-01-01T05:16:40.978Z,23.11
2023-01-01T05:19:09.059Z,23.08
2023-01-01T05:21:39.731Z,23.09
2023-01-01T05:24:09.026Z,23.05
2023-01-01T05:26:38.884Z,23.08
2023-01-01T05:29:10.307Z,23.08
2023-01-01T05:31:42.291Z,23.07
2023-01-01T05:36:38.851Z,23.07
2023-01-01T05:39:07.091Z,23.07
2023-01-01T05:41:36.722Z,23.07
2023-01-01T05:44:06.459Z,23.05
2023-01-01T05:49:02.834Z,23.05
2023-01-01T05:53:58.347Z,22.83
2023-01-01T05:56:26.634Z,23.04
2023-01-01T05:58:53.459Z,23.00
2023-01-01T06:01:23.157Z,22.43
2023-01-01T06:03:51.499Z,23.04
2023-01-01T06:06:20.519Z,23.03
2023-01-01T06:08:51.746Z,23.01
2023-01-01T06:11:19.431Z,22.93
2023-01-01T06:13:46.444Z,22.95
2023-01-01T06:16:13.509Z,23.00
2023-01-01T06:18:40.918Z,22.95
2023-01-01T06:21:10.638Z,22.98
2023-01-01T06:23:37.274Z,22.95
2023-01-01T06:26:08.445Z,22.97
2023-01-01T06:28:35.282Z,22.83
2023-01-01T06:31:03.520Z,22.83
2023-01-01T06:33:30.742Z,22.86
2023-01-01T06:35:57.657Z,22.97
2023-01-01T06:38:24.509Z,22.94
2023-01-01T06:41:02.552Z,22.88
2023-01-01T06:43:31.263Z,22.96
2023-01-01T06:46:21.979Z,22.96
2023-01-01T06:48:51.095Z,22.96
2023-01-01T06:51:28.876Z,22.82
2023-01-01T06:53:59.164Z,22.84
2023-01-01T06:56:26.080Z,22.96
2023-01-01T06:58:52.763Z,22.91
2023-01-01T07:01:24.799Z,22.97
2023-01-01T07:03:52.906Z,22.97
2023-01-01T07:06:19.571Z,22.88
2023-01-01T07:08:47.057Z,22.97
2023-01-01T07:11:13.606Z,22.98
2023-01-01T07:13:40.441Z,22.98
2023-01-01T07:16:12.721Z,22.98
2023-01-01T07:18:40.694Z,22.98
2023-01-01T07:21:28.220Z,22.91
2023-01-01T07:23:56.453Z,22.88
2023-01-01T07:26:27.387Z,22.90
2023-01-01T07:28:54.538Z,23.00
2023-01-01T07:31:21.493Z,23.00
2023-01-01T07:33:48.433Z,22.93
2023-01-01T07:36:16.754Z,23.02
2023-01-01T07:38:43.406Z,23.01
2023-01-01T07:41:10.150Z,23.02
2023-01-01T07:43:36.911Z,23.01
2023-01-01T07:46:03.924Z,23.01
2023-01-01T07:48:34.761Z,23.04
2023-01-01T07:51:06.426Z,23.04
2023-01-01T07:53:33.011Z,23.05
2023-01-01T07:55:59.697Z,22.94
2023-01-01T07:58:26.290Z,22.94
2023-01-01T08:00:53.056Z,22.88
2023-01-01T08:03:19.733Z,22.93
2023-01-01T08:05:46.553Z,22.94
2023-01-01T08:08:13.144Z,23.07
2023-01-01T08:10:39.934Z,22.93
2023-01-01T08:13:08.844Z,23.07
2023-01-01T08:15:36.112Z,22.97
2023-01-01T08:18:05.124Z,23.05
2023-01-01T08:20:33.146Z,23.08
2023-01-01T08:23:07.169Z,23.01
2023-01-01T08:27:58.265Z,22.73
2023-01-01T08:30:25.135Z,23.04
2023-01-01T08:32:52.830Z,22.90
2023-01-01T08:35:19.508Z,22.80
2023-01-01T08:37:46.247Z,23.08
2023-01-01T08:40:13.828Z,23.08
2023-01-01T08:42:41.980Z,23.08
2023-01-01T08:45:09.838Z,23.01
2023-01-01T08:47:36.521Z,23.00
2023-01-01T08:50:03.529Z,22.98
2023-01-01T08:52:30.285Z,23.07
2023-01-01T08:54:56.994Z,22.80
2023-01-01T08:57:23.737Z,23.07
2023-01-01T08:59:50.487Z,22.68
2023-01-01T09:02:20.093Z,22.73
2023-01-01T09:04:46.947Z,22.88
2023-01-01T09:07:13.590Z,22.74
2023-01-01T09:09:40.257Z,23.06
2023-01-01T09:12:14.879Z,23.03
2023-01-01T09:14:41.645Z,23.02
2023-01-01T09:17:08.236Z,23.06
2023-01-01T09:19:35.293Z,23.06
2023-01-01T09:22:01.820Z,22.81
2023-01-01T09:24:28.572Z,23.06
2023-01-01T09:26:55.480Z,23.01
2023-01-01T09:29:22.097Z,23.06
2023-01-01T09:31:50.126Z,22.98
2023-01-01T09:34:18.170Z,23.07
2023-01-01T09:36:46.037Z,22.77
2023-01-01T09:39:15.599Z,23.00
2023-01-01T09:41:51.342Z,23.07
2023-01-01T09:44:42.984Z,23.07
2023-01-01T09:47:23.037Z,22.98
2023-01-01T09:49:52.336Z,22.98
2023-01-01T09:52:20.399Z,22.99
2023-01-01T09:55:03.351Z,23.07
2023-01-01T09:57:32.651Z,23.07
2023-01-01T10:00:00.448Z,23.06
2023-01-01T10:02:51.691Z,23.07
2023-01-01T10:05:38.718Z,23.07
2023-01-01T10:08:38.833Z,23.06
2023-01-01T10:11:47.505Z,23.04
2023-01-01T10:14:37.974Z,23.00
2023-01-01T10:17:21.466Z,23.04
2023-01-01T10:19:52.570Z,23.06
2023-01-01T10:22:34.539Z,22.96
2023-01-01T10:25:04.167Z,23.09
2023-01-01T10:27:36.182Z,23.11
2023-01-01T10:30:13.439Z,23.12
2023-01-01T10:32:40.963Z,23.02
2023-01-01T10:35:17.777Z,23.14
2023-01-01T10:37:45.080Z,23.16
2023-01-01T10:40:23.998Z,23.15
2023-01-01T10:42:53.374Z,23.12
2023-01-01T10:45:35.579Z,23.16
2023-01-01T10:48:14.484Z,23.17
2023-01-01T10:50:46.085Z,23.18
2023-01-01T10:53:22.105Z,23.18
2023-01-01T10:55:58.584Z,23.19
2023-01-01T10:58:46.875Z,23.09
2023-01-01T11:01:33.689Z,23.18
2023-01-01T11:04:09.325Z,23.18
2023-01-01T11:06:41.007Z,23.01
2023-01-01T11:09:20.873Z,23.17
2023-01-01T11:11:54.567Z,23.14
2023-01-01T11:14:25.898Z,23.17
2023-01-01T11:16:54.637Z,23.10
2023-01-01T11:19:29.052Z,23.18
2023-01-01T11:21:56.089Z,23.11
2023-01-01T11:24:26.474Z,23.20
2023-01-01T11:26:55.126Z,23.00
2023-01-01T11:29:27.929Z,23.22
2023-01-01T11:31:59.360Z,23.23
2023-01-01T11:34:37.000Z,23.17
2023-01-01T11:37:28.551Z,23.25
2023-01-01T11:39:58.720Z,23.19
2023-01-01T11:42:28.758Z,23.25
2023-01-01T11:45:00.341Z,23.28
2023-01-01T11:47:27.545Z,23.29
2023-01-01T11:50:05.874Z,23.22
2023-01-01T11:52:39.962Z,23.30
2023-01-01T11:55:32.069Z,23.32
2023-01-01T11:57:58.902Z,23.30
2023-01-01T12:00:25.576Z,23.27
2023-01-01T12:05:37.659Z,23.35
2023-01-01T12:08:10.639Z,23.36
2023-01-01T12:10:49.100Z,23.31
2023-01-01T12:13:20.931Z,23.37
2023-01-01T12:15:58.868Z,23.38
2023-01-01T12:18:35.223Z,23.32
2023-01-01T12:21:08.605Z,23.26
2023-01-01T12:23:36.391Z,23.39
2023-01-01T12:26:09.081Z,23.39
2023-01-01T12:28:35.678Z,23.38
2023-01-01T12:31:21.283Z,23.38
2023-01-01T12:39:41.983Z,23.39
2023-01-01T12:42:43.828Z,23.29
2023-01-01T12:45:31.290Z,23.36
2023-01-01T12:48:16.841Z,23.36
2023-01-01T12:51:04.831Z,23.36
2023-01-01T12:53:47.027Z,23.38
2023-01-01T12:56:23.071Z,23.38
2023-01-01T12:59:02.147Z,23.40
2023-01-01T13:01:33.688Z,23.41
2023-01-01T13:04:04.575Z,23.31
2023-01-01T13:06:51.579Z,23.41
2023-01-01T13:09:25.705Z,23.36
2023-01-01T13:12:00.388Z,23.42
2023-01-01T13:14:27.724Z,23.33
2023-01-01T13:16:55.708Z,23.40
2023-01-01T13:19:41.111Z,23.32
2023-01-01T13:22:43.029Z,23.43
2023-01-01T13:25:10.849Z,23.44
2023-01-01T13:27:56.192Z,23.38
2023-01-01T13:30:38.180Z,23.43
2023-01-01T13:33:35.077Z,23.41
2023-01-01T13:36:19.590Z,23.41
2023-01-01T13:38:56.307Z,23.39
2023-01-01T13:41:43.894Z,23.39
2023-01-01T13:44:11.863Z,23.39
2023-01-01T13:46:44.411Z,23.39
2023-01-01T13:49:30.029Z,23.40
2023-01-01T13:52:07.442Z,23.37
2023-01-01T13:54:58.590Z,23.38
2023-01-01T13:57:37.173Z,23.37
2023-01-01T14:00:22.943Z,23.36
2023-01-01T14:03:02.957Z,23.37
2023-01-01T14:05:29.805Z,23.35
2023-01-01T14:07:56.666Z,23.35
2023-01-01T14:10:25.595Z,23.33
2023-01-01T14:12:53.668Z,23.28
2023-01-01T14:15:31.063Z,23.32
2023-01-01T14:18:00.295Z,23.21
2023-01-01T14:20:51.763Z,23.31
2023-01-01T14:23:28.414Z,23.32
2023-01-01T14:25:55.457Z,23.21
2023-01-01T14:28:33.478Z,23.24
2023-01-01T14:31:10.666Z,23.31
2023-01-01T14:33:38.552Z,23.23
2023-01-01T14:36:14.405Z,23.29
2023-01-01T14:38:47.100Z,23.28
2023-01-01T14:41:20.472Z,23.29
2023-01-01T14:43:50.640Z,23.25
2023-01-01T14:46:20.872Z,23.29
2023-01-01T14:48:51.842Z,23.24
2023-01-01T14:51:27.453Z,23.28
2023-01-01T14:53:58.341Z,23.23
2023-01-01T14:56:37.071Z,23.07
2023-01-01T14:59:08.328Z,23.27
2023-01-01T15:01:35.276Z,23.18
2023-01-01T15:04:04.837Z,23.00
2023-01-01T15:06:32.828Z,23.28
2023-01-01T15:08:59.734Z,23.08
2023-01-01T15:11:29.103Z,23.27
2023-01-01T15:13:59.264Z,23.04
2023-01-01T15:16:27.976Z,23.27
2023-01-01T15:18:58.060Z,23.11
2023-01-01T15:21:30.700Z,23.29
2023-01-01T15:24:03.265Z,23.24
2023-01-01T15:26:41.013Z,23.17
2023-01-01T15:29:11.854Z,23.22
2023-01-01T15:31:43.486Z,23.27
2023-01-01T15:34:35.056Z,23.28
2023-01-01T15:37:12.590Z,23.27
2023-01-01T15:39:49.799Z,23.20
2023-01-01T15:42:36.643Z,23.28
2023-01-01T15:45:18.325Z,23.27
2023-01-01T15:47:46.239Z,23.26
2023-01-01T15:50:26.342Z,23.27
2023-01-01T15:52:59.712Z,23.21
2023-01-01T15:55:29.752Z,23.24
2023-01-01T15:57:57.022Z,23.23
2023-01-01T16:00:33.073Z,23.24
2023-01-01T16:03:18.074Z,23.27
2023-01-01T16:05:51.745Z,23.27
2023-01-01T16:08:20.159Z,23.27
2023-01-01T16:10:48.326Z,23.19
2023-01-01T16:13:16.978Z,23.27
2023-01-01T16:16:18.296Z,23.22
2023-01-01T16:18:45.406Z,23.27
2023-01-01T16:21:12.046Z,23.27
2023-01-01T16:23:38.775Z,23.22
2023-01-01T16:26:05.417Z,23.03
2023-01-01T16:28:32.180Z,23.27
2023-01-01T16:30:58.951Z,23.28
2023-01-01T16:33:25.763Z,23.28
2023-01-01T16:35:52.440Z,23.29
2023-01-01T16:38:19.123Z,23.25
2023-01-01T16:40:45.768Z,23.26
2023-01-01T16:43:16.575Z,23.25
2023-01-01T16:45:44.484Z,23.25
2023-01-01T16:48:11.176Z,23.29
2023-01-01T16:50:37.784Z,23.29
2023-01-01T16:53:04.397Z,23.28
2023-01-01T16:55:31.063Z,23.26
2023-01-01T16:58:20.983Z,23.29
2023-01-01T17:00:44.651Z,23.28
2023-01-01T17:03:14.149Z,23.29
2023-01-01T17:05:44.656Z,23.25
2023-01-01T17:08:21.724Z,23.29
2023-01-01T17:11:10.000Z,23.25
2023-01-01T17:13:39.499Z,23.28
2023-01-01T17:16:12.416Z,23.27
2023-01-01T17:21:28.995Z,23.28
2023-01-01T17:23:58.168Z,23.25
2023-01-01T17:26:27.370Z,23.19
2023-01-01T17:29:00.345Z,23.26
2023-01-01T17:31:31.231Z,23.24
2023-01-01T17:33:58.071Z,23.26
2023-01-01T17:36:27.394Z,23.19
2023-01-01T17:38:54.455Z,23.24
2023-01-01T17:41:21.324Z,23.26
2023-01-01T17:43:51.161Z,23.27
2023-01-01T17:46:21.014Z,23.28
2023-01-01T17:48:50.361Z,23.26
2023-01-01T17:51:18.745Z,23.26
2023-01-01T17:53:45.520Z,23.28
2023-01-01T17:56:14.012Z,23.21
2023-01-01T17:58:45.975Z,23.26
2023-01-01T18:01:15.472Z,23.27
2023-01-01T18:03:42.130Z,23.18
2023-01-01T18:06:09.042Z,23.25
2023-01-01T18:08:35.826Z,23.26
2023-01-01T18:11:02.619Z,23.26
2023-01-01T18:13:29.742Z,23.21
2023-01-01T18:16:08.040Z,23.26
2023-01-01T18:18:39.902Z,23.25
2023-01-01T18:21:11.715Z,23.18
2023-01-01T18:23:39.988Z,23.11
2023-01-01T18:26:10.215Z,23.20
2023-01-01T18:28:40.056Z,23.15
2023-01-01T18:31:15.260Z,23.24
2023-01-01T18:33:42.667Z,23.19
2023-01-01T18:36:12.808Z,23.22
2023-01-01T18:38:42.826Z,23.21
2023-01-01T18:41:45.265Z,23.23
2023-01-01T18:44:18.548Z,23.22
2023-01-01T18:46:54.253Z,23.24
2023-01-01T18:49:24.025Z,23.23
2023-01-01T18:52:25.902Z,23.20
2023-01-01T18:55:14.398Z,23.23
2023-01-01T18:57:41.592Z,23.16
2023-01-01T19:00:26.400Z,23.22
2023-01-01T19:03:14.657Z,23.12
2023-01-01T19:05:42.039Z,23.20
2023-01-01T19:08:08.615Z,23.20
2023-01-01T19:10:42.629Z,23.19
2023-01-01T19:13:40.627Z,23.17
2023-01-01T19:16:25.984Z,23.14
2023-01-01T19:18:53.150Z,23.17
2023-01-01T19:21:22.918Z,23.10
2023-01-01T19:23:52.379Z,23.16
2023-01-01T19:26:29.684Z,23.14
2023-01-01T19:29:01.441Z,23.12
2023-01-01T19:31:28.365Z,23.05
2023-01-01T19:33:57.716Z,23.11
2023-01-01T19:36:24.517Z,23.09
2023-01-01T19:38:51.130Z,23.10
2023-01-01T19:41:17.854Z,23.08
2023-01-01T19:43:44.399Z,23.09
2023-01-01T19:46:11.330Z,22.82
2023-01-01T19:48:37.992Z,23.06
2023-01-01T19:51:08.646Z,23.05
2023-01-01T19:53:37.714Z,23.06
2023-01-01T19:56:07.568Z,22.90
2023-01-01T19:58:35.342Z,23.03
2023-01-01T20:01:03.148Z,23.01
2023-01-01T20:06:25.508Z,23.00
2023-01-01T20:08:53.830Z,23.00
2023-01-01T20:11:24.142Z,22.99
2023-01-01T20:13:50.898Z,22.99
2023-01-01T20:16:17.782Z,22.98
2023-01-01T20:18:49.009Z,22.96
2023-01-01T20:21:34.590Z,22.96
2023-01-01T20:24:02.948Z,22.87
2023-01-01T20:26:32.041Z,22.94
2023-01-01T20:29:23.298Z,22.76
2023-01-01T20:32:05.167Z,22.92
2023-01-01T20:34:32.120Z,22.91
2023-01-01T20:37:17.123Z,22.90
2023-01-01T20:39:43.942Z,22.90
2023-01-01T20:42:10.675Z,22.89
2023-01-01T20:44:37.517Z,22.88
2023-01-01T20:47:07.099Z,22.87
2023-01-01T20:49:33.739Z,22.88
2023-01-01T20:52:00.680Z,22.87
2023-01-01T20:54:27.311Z,22.86
2023-01-01T20:56:53.926Z,22.83
2023-01-01T20:59:38.093Z,22.86
2023-01-01T21:02:07.746Z,22.45
2023-01-01T21:04:39.396Z,22.80
2023-01-01T21:07:08.940Z,22.77
2023-01-01T21:09:37.083Z,22.79
2023-01-01T21:12:05.360Z,22.72
2023-01-01T21:14:32.090Z,22.82
2023-01-01T21:16:59.136Z,22.83
2023-01-01T21:19:27.229Z,22.77
2023-01-01T21:21:58.539Z,22.81
2023-01-01T21:24:28.185Z,22.81
2023-01-01T21:27:26.537Z,22.68
2023-01-01T21:29:57.159Z,22.71
2023-01-01T21:32:38.867Z,22.79
2023-01-01T21:35:32.683Z,22.75
2023-01-01T21:38:00.447Z,22.78
2023-01-01T21:40:55.009Z,22.77
2023-01-01T21:43:42.030Z,22.75
2023-01-01T21:46:08.696Z,22.76
2023-01-01T21:48:44.949Z,22.74
2023-01-01T21:53:40.880Z,22.51
2023-01-01T21:56:26.361Z,22.73
2023-01-01T21:59:11.696Z,22.23
2023-01-01T22:01:43.621Z,22.71
2023-01-01T22:04:10.342Z,22.70
2023-01-01T22:06:49.129Z,22.66
2023-01-01T22:09:29.580Z,22.71
2023-01-01T22:12:16.269Z,22.69
2023-01-01T22:14:51.609Z,22.69
2023-01-01T22:17:25.891Z,22.67
2023-01-01T22:19:56.465Z,22.57
2023-01-01T22:22:26.896Z,22.53
2023-01-01T22:24:58.737Z,22.66
2023-01-01T22:27:32.432Z,22.65
2023-01-01T22:30:13.670Z,22.57
2023-01-01T22:32:40.439Z,22.54
2023-01-01T22:35:07.224Z,22.64
2023-01-01T22:37:38.607Z,22.63
2023-01-01T22:40:14.835Z,22.64
2023-01-01T22:42:41.455Z,22.55
2023-01-01T22:45:15.816Z,22.56
2023-01-01T22:47:45.752Z,22.54
2023-01-01T22:50:38.787Z,22.65
2023-01-01T22:53:05.806Z,22.52
2023-01-01T22:55:32.419Z,22.46
2023-01-01T22:57:59.194Z,22.64
2023-01-01T23:00:25.813Z,22.61
2023-01-01T23:02:52.614Z,22.60
2023-01-01T23:05:19.334Z,22.48
2023-01-01T23:07:46.453Z,22.53
2023-01-01T23:10:14.933Z,22.64
2023-01-01T23:12:41.805Z,22.64
2023-01-01T23:15:27.201Z,22.55
2023-01-01T23:17:54.173Z,22.65
2023-01-01T23:20:20.780Z,22.63
2023-01-01T23:22:51.301Z,22.54
2023-01-01T23:25:19.675Z,22.60
2023-01-01T23:27:47.967Z,22.50
2023-01-01T23:30:14.923Z,22.64
2023-01-01T23:32:42.336Z,22.50
2023-01-01T23:35:10.587Z,22.64
2023-01-01T23:37:38.157Z,22.65
2023-01-01T23:40:06.013Z,22.65
2023-01-01T23:42:32.697Z,22.65
2023-01-01T23:44:59.336Z,22.64
2023-01-01T23:47:26.187Z,22.59
2023-01-01T23:49:52.989Z,22.65
2023-01-01T23:52:19.535Z,22.65
2023-01-01T23:54:46.404Z,22.62
2023-01-01T23:57:14.123Z,22.33
2023-01-01T23:59:40.721Z,22.57
